Time;durP1;ratioP1;P1;durP2;ratioP2;P2;SDS_P1;SDS_P2;PMS_P1;PMS_P2;Temp;Humidity;BMP_temperature;BMP_pressure;BME280_temperature;BME280_humidity;BME280_pressure;Samples;Min_cycle;Max_cycle;Signal;HPM_P1;HPM_P2
2021/09/29 00:00:17;;;;;;;19.70;15.10;;;18.30;99.90;;;;;;5010308;28;20136;-57
2021/09/29 00:02:43;;;;;;;17.30;14.63;;;18.00;99.90;;;;;;5009120;28;20064;-53
2021/09/29 00:05:09;;;;;;;18.35;15.77;;;18.10;99.90;;;;;;5012101;28;20451;-58
2021/09/29 00:07:34;;;;;;;20.35;15.88;;;18.00;99.90;;;;;;4993045;28;20132;-58
2021/09/29 00:10:00;;;;;;;19.67;14.70;;;18.00;99.90;;;;;;5014025;28;20101;-53
2021/09/29 00:12:26;;;;;;;18.88;15.55;;;17.90;99.90;;;;;;4997034;28;20034;-55
2021/09/29 00:14:52;;;;;;;17.35;14.30;;;17.90;99.90;;;;;;5010606;28;20477;-56
2021/09/29 00:17:18;;;;;;;17.95;14.90;;;18.10;99.90;;;;;;5015141;28;20057;-57
2021/09/29 00:19:43;;;;;;;17.48;14.60;;;18.10;99.90;;;;;;5013105;28;20079;-57
2021/09/29 00:22:09;;;;;;;17.98;14.50;;;17.90;99.90;;;;;;5014875;28;20033;-57
2021/09/29 00:24:35;;;;;;;16.98;14.10;;;17.90;99.90;;;;;;5013459;28;20030;-55
2021/09/29 00:27:01;;;;;;;19.50;15.45;;;17.90;99.90;;;;;;5013672;28;20037;-53
2021/09/29 00:29:26;;;;;;;19.35;14.63;;;17.90;99.90;;;;;;5012967;28;20128;-60
2021/09/29 00:31:52;;;;;;;19.58;13.93;;;18.00;99.90;;;;;;5014802;28;20030;-54
2021/09/29 00:34:35;;;;;;;19.95;14.77;;;18.00;99.90;;;;;;5012607;28;20026;-55
2021/09/29 00:37:02;;;;;;;21.55;15.10;;;18.10;99.90;;;;;;4993866;28;20370;-54
2021/09/29 00:39:28;;;;;;;21.63;15.52;;;18.20;99.90;;;;;;5012672;28;20339;-55
2021/09/29 00:41:54;;;;;;;18.35;14.38;;;18.30;99.90;;;;;;5011821;28;20105;-56
2021/09/29 00:44:20;;;;;;;19.15;14.85;;;18.30;99.90;;;;;;4996340;28;20038;-53
2021/09/29 00:46:47;;;;;;;20.45;14.77;;;18.40;99.90;;;;;;5015090;28;20110;-57
2021/09/29 00:49:13;;;;;;;17.63;15.05;;;18.40;99.90;;;;;;5013244;28;20363;-58
2021/09/29 00:51:39;;;;;;;19.50;14.63;;;18.40;99.90;;;;;;4994882;28;20093;-55
2021/09/29 00:54:06;;;;;;;18.35;15.02;;;18.30;99.90;;;;;;5010666;28;20521;-58
2021/09/29 00:56:32;;;;;;;19.70;15.57;;;18.40;99.90;;;;;;4994406;28;20030;-56
2021/09/29 00:58:59;;;;;;;19.50;14.88;;;18.30;99.90;;;;;;5013208;28;20029;-56
2021/09/29 01:01:24;;;;;;;19.85;14.77;;;18.20;99.90;;;;;;5011807;28;20021;-56
2021/09/29 01:03:52;;;;;;;19.75;15.52;;;18.40;99.90;;;;;;5015127;28;20112;-58
2021/09/29 01:06:23;;;;;;;17.60;14.80;;;18.50;99.90;;;;;;5011829;28;20505;-56
2021/09/29 01:08:56;;;;;;;19.08;15.88;;;18.60;99.90;;;;;;5013379;28;20034;-57
2021/09/29 01:11:42;;;;;;;18.83;15.15;;;18.40;99.90;;;;;;5010269;28;20050;-58
2021/09/29 01:14:29;;;;;;;17.83;14.82;;;18.50;99.90;;;;;;5012515;28;20026;-57
2021/09/29 01:16:57;;;;;;;17.33;13.75;;;18.60;99.90;;;;;;5010975;28;20124;-55
2021/09/29 01:20:04;;;;;;;22.35;16.75;;;18.70;99.90;;;;;;5009006;28;20057;-55
2021/09/29 01:22:39;;;;;;;19.52;15.45;;;18.60;99.90;;;;;;4953659;28;20039;-55
2021/09/29 01:25:08;;;;;;;19.20;15.60;;;18.70;99.90;;;;;;4953341;28;20043;-55
2021/09/29 01:27:35;;;;;;;18.40;14.93;;;18.80;99.90;;;;;;4915720;29;20392;-55
2021/09/29 01:30:02;;;;;;;20.73;14.45;;;18.60;99.90;;;;;;4915254;29;20084;-55
2021/09/29 01:32:29;;;;;;;18.58;14.25;;;18.70;99.90;;;;;;4900385;29;20040;-59
2021/09/29 01:34:55;;;;;;;18.90;14.30;;;18.80;99.90;;;;;;4915078;29;20036;-57
2021/09/29 01:37:21;;;;;;;18.25;15.13;;;18.80;99.90;;;;;;4914883;29;20606;-55
2021/09/29 01:39:48;;;;;;;20.73;15.13;;;18.90;99.90;;;;;;4915041;29;20405;-59
2021/09/29 01:42:13;;;;;;;20.75;15.07;;;18.60;99.90;;;;;;4915026;29;20036;-58
2021/09/29 01:44:40;;;;;;;17.75;15.07;;;18.60;99.90;;;;;;4914976;29;20512;-53
2021/09/29 01:47:06;;;;;;;19.08;14.73;;;18.70;99.90;;;;;;4899920;29;20043;-55
2021/09/29 01:49:38;;;;;;;24.75;16.60;;;18.80;99.90;;;;;;4899100;29;20060;-57
2021/09/29 01:52:08;;;;;;;19.05;15.38;;;18.70;99.90;;;;;;4888094;29;20127;-55
2021/09/29 01:54:39;;;;;;;18.63;15.52;;;18.80;99.90;;;;;;4914932;29;20068;-56
2021/09/29 01:57:05;;;;;;;19.65;16.08;;;18.90;99.90;;;;;;4918818;28;20036;-57
2021/09/29 01:59:31;;;;;;;19.88;16.02;;;19.00;99.90;;;;;;4972241;28;20039;-58
2021/09/29 02:01:57;;;;;;;23.77;19.15;;;18.90;99.90;;;;;;4971949;28;20073;-57
2021/09/29 02:04:23;;;;;;;20.30;16.08;;;18.80;99.90;;;;;;4983417;28;20757;-53
2021/09/29 02:06:52;;;;;;;24.45;19.48;;;18.60;99.90;;;;;;5012877;28;20034;-58
2021/09/29 02:09:19;;;;;;;25.05;19.52;;;18.40;99.90;;;;;;5011598;28;20042;-57
2021/09/29 02:11:46;;;;;;;24.23;19.73;;;18.50;99.90;;;;;;5008591;28;20052;-53
2021/09/29 02:14:18;;;;;;;22.80;19.50;;;18.40;99.90;;;;;;5011862;28;20026;-54
2021/09/29 02:16:44;;;;;;;27.35;19.70;;;18.30;99.90;;;;;;5012601;28;20049;-52
2021/09/29 02:19:10;;;;;;;22.10;15.75;;;18.20;99.90;;;;;;5012561;28;20362;-52
2021/09/29 02:21:38;;;;;;;21.60;16.10;;;18.20;99.90;;;;;;5013697;28;20022;-55
2021/09/29 02:24:05;;;;;;;21.23;16.58;;;18.10;99.90;;;;;;4970278;28;20565;-58
2021/09/29 02:26:31;;;;;;;23.25;16.20;;;18.00;99.90;;;;;;4986186;28;20050;-53
2021/09/29 02:28:57;;;;;;;25.88;17.23;;;17.90;99.90;;;;;;4990968;28;20050;-54
2021/09/29 02:31:22;;;;;;;23.40;17.10;;;18.00;99.90;;;;;;4991566;28;20435;-55
2021/09/29 02:33:49;;;;;;;23.55;17.77;;;18.00;99.90;;;;;;4990836;28;20034;-58
2021/09/29 02:36:15;;;;;;;22.02;17.17;;;18.10;99.90;;;;;;4990745;28;20117;-58
2021/09/29 02:38:44;;;;;;;25.30;18.05;;;18.20;99.90;;;;;;4991154;28;20398;-55
2021/09/29 02:41:11;;;;;;;25.00;17.90;;;18.30;99.90;;;;;;4986731;28;20080;-58
2021/09/29 02:43:37;;;;;;;25.38;20.63;;;18.20;99.90;;;;;;4989736;28;20041;-56
2021/09/29 02:46:03;;;;;;;25.67;21.15;;;18.10;99.90;;;;;;4991140;28;20040;-57
2021/09/29 02:48:29;;;;;;;23.83;21.25;;;18.10;99.90;;;;;;4990472;28;20413;-54
2021/09/29 02:50:55;;;;;;;24.90;21.65;;;18.30;99.90;;;;;;4990899;28;20109;-56
2021/09/29 02:53:21;;;;;;;28.70;22.27;;;18.30;99.90;;;;;;4990964;28;20132;-56
2021/09/29 02:55:47;;;;;;;24.70;20.23;;;18.40;99.90;;;;;;4989105;28;20120;-55
2021/09/29 02:58:12;;;;;;;24.23;18.85;;;18.50;99.90;;;;;;5011715;28;20482;-55
2021/09/29 03:00:38;;;;;;;28.00;20.75;;;18.60;99.90;;;;;;5009719;28;20026;-55
2021/09/29 03:03:04;;;;;;;24.63;21.15;;;18.70;99.90;;;;;;5012207;28;20470;-56
2021/09/29 03:05:30;;;;;;;24.70;20.90;;;18.70;99.90;;;;;;5011544;28;20036;-56
2021/09/29 03:07:59;;;;;;;25.88;20.83;;;18.70;99.90;;;;;;4988288;28;20124;-53
2021/09/29 03:10:25;;;;;;;28.77;22.73;;;18.60;99.90;;;;;;5005801;28;20110;-52
2021/09/29 03:12:51;;;;;;;27.33;21.58;;;18.40;99.90;;;;;;5010891;28;20033;-58
2021/09/29 03:15:17;;;;;;;28.60;22.05;;;18.20;99.90;;;;;;5010902;28;20042;-58
2021/09/29 03:17:43;;;;;;;30.60;22.92;;;17.90;99.90;;;;;;4967670;28;20382;-58
2021/09/29 03:20:09;;;;;;;29.10;22.70;;;17.90;99.90;;;;;;4994597;28;20044;-57
2021/09/29 03:22:35;;;;;;;27.80;22.52;;;17.90;99.90;;;;;;5007789;28;20032;-57
2021/09/29 03:25:01;;;;;;;27.48;22.13;;;17.80;99.90;;;;;;5008055;28;20038;-55
2021/09/29 03:27:27;;;;;;;31.02;22.38;;;17.90;99.90;;;;;;5006376;28;20027;-57
2021/09/29 03:29:52;;;;;;;25.63;21.83;;;18.00;99.90;;;;;;5010934;28;20034;-57
2021/09/29 03:32:18;;;;;;;26.83;22.13;;;17.90;99.90;;;;;;5007687;28;20468;-57
2021/09/29 03:34:44;;;;;;;25.45;20.77;;;18.10;99.90;;;;;;5009930;28;20030;-55
2021/09/29 03:37:09;;;;;;;26.27;21.40;;;18.20;99.90;;;;;;4989529;28;20057;-56
2021/09/29 03:39:35;;;;;;;28.25;20.55;;;18.20;99.90;;;;;;5012017;28;20402;-54
2021/09/29 03:42:01;;;;;;;27.38;22.10;;;18.20;99.90;;;;;;4994449;28;20049;-59
2021/09/29 03:44:27;;;;;;;27.52;21.48;;;18.30;99.90;;;;;;4998509;28;20062;-53
2021/09/29 03:46:53;;;;;;;26.48;21.00;;;18.40;99.90;;;;;;5013252;28;20123;-55
2021/09/29 03:49:19;;;;;;;24.13;20.65;;;18.40;99.90;;;;;;5015433;28;20026;-55
2021/09/29 03:51:44;;;;;;;26.88;21.13;;;17.00;99.90;;;;;;4995172;28;20060;-59
2021/09/29 03:54:10;;;;;;;25.52;20.27;;;17.90;99.90;;;;;;5014397;28;20080;-54
2021/09/29 03:56:36;;;;;;;24.52;21.42;;;17.80;99.90;;;;;;5013922;28;20470;-55
2021/09/29 03:59:05;;;;;;;27.60;21.35;;;17.80;99.90;;;;;;5012997;28;20030;-55
2021/09/29 04:01:30;;;;;;;24.98;20.58;;;18.00;99.90;;;;;;5013925;28;20026;-54
2021/09/29 04:03:56;;;;;;;26.88;22.10;;;18.10;99.90;;;;;;5016185;28;20030;-54
2021/09/29 04:06:22;;;;;;;27.77;22.85;;;18.00;99.90;;;;;;5012717;28;20383;-55
2021/09/29 04:08:48;;;;;;;28.40;23.10;;;18.00;99.90;;;;;;5012019;28;20045;-53
2021/09/29 04:11:13;;;;;;;29.17;23.23;;;18.10;99.90;;;;;;5013115;28;20041;-54
2021/09/29 04:13:39;;;;;;;28.17;22.00;;;18.20;99.90;;;;;;5015798;28;20087;-59
2021/09/29 04:16:05;;;;;;;33.42;23.52;;;18.20;99.90;;;;;;5014566;28;20378;-53
2021/09/29 04:18:31;;;;;;;27.88;22.10;;;18.00;99.90;;;;;;5010077;28;20029;-55
2021/09/29 04:20:57;;;;;;;26.48;21.58;;;17.90;99.90;;;;;;5012295;28;20030;-54
2021/09/29 04:23:23;;;;;;;26.63;22.00;;;17.80;99.90;;;;;;5009390;28;20538;-52
2021/09/29 04:25:51;;;;;;;30.75;22.23;;;17.70;99.90;;;;;;5015888;28;20116;-61
2021/09/29 04:28:18;;;;;;;25.73;21.08;;;17.70;99.90;;;;;;5009730;28;20037;-55
2021/09/29 04:30:43;;;;;;;27.33;22.20;;;17.90;99.90;;;;;;5014564;28;20032;-55
2021/09/29 04:33:09;;;;;;;27.23;22.58;;;17.90;99.90;;;;;;5009663;28;20030;-57
2021/09/29 04:35:38;;;;;;;29.63;23.25;;;18.00;99.90;;;;;;4996517;28;20038;-59
2021/09/29 04:38:04;;;;;;;27.02;22.42;;;18.10;99.90;;;;;;5007611;28;20037;-55
2021/09/29 04:40:30;;;;;;;31.08;23.05;;;18.10;99.90;;;;;;5008004;28;20030;-54
2021/09/29 04:42:55;;;;;;;28.63;23.13;;;18.10;99.90;;;;;;4995269;28;20056;-56
2021/09/29 04:45:21;;;;;;;27.88;22.27;;;18.10;99.90;;;;;;5013281;28;20026;-56
2021/09/29 04:47:47;;;;;;;29.35;20.42;;;18.10;99.90;;;;;;5013493;28;20088;-57
2021/09/29 04:50:13;;;;;;;29.23;21.75;;;17.90;99.90;;;;;;4964022;28;20639;-53
2021/09/29 04:52:39;;;;;;;26.15;22.02;;;17.80;99.90;;;;;;4959577;28;20040;-56
2021/09/29 04:55:05;;;;;;;25.40;20.67;;;17.80;99.90;;;;;;5011113;28;20217;-54
2021/09/29 04:57:32;;;;;;;26.40;22.42;;;17.70;99.90;;;;;;4995757;28;20034;-56
2021/09/29 04:59:59;;;;;;;28.88;21.35;;;17.70;99.90;;;;;;4996922;28;20065;-56
2021/09/29 05:02:25;;;;;;;30.75;22.88;;;17.60;99.90;;;;;;5013126;28;20030;-54
2021/09/29 05:04:50;;;;;;;28.77;23.13;;;17.60;99.90;;;;;;5012848;28;20033;-54
2021/09/29 05:07:17;;;;;;;29.35;23.05;;;17.60;99.90;;;;;;4992092;28;20030;-53
2021/09/29 05:09:49;;;;;;;29.23;22.52;;;17.60;99.90;;;;;;5013363;28;20084;-54
2021/09/29 05:12:28;;;;;;;27.17;22.00;;;17.70;99.90;;;;;;5013284;28;20038;-52
2021/09/29 05:14:55;;;;;;;28.30;21.65;;;17.60;99.90;;;;;;5013500;28;20038;-57
2021/09/29 05:17:21;;;;;;;28.10;22.35;;;17.60;99.90;;;;;;5007426;28;20026;-55
2021/09/29 05:19:47;;;;;;;30.85;22.05;;;17.70;99.90;;;;;;5012224;28;20081;-55
2021/09/29 05:22:13;;;;;;;27.52;21.50;;;17.70;99.90;;;;;;5024455;28;20029;-54
2021/09/29 05:24:39;;;;;;;28.42;23.25;;;17.80;99.90;;;;;;5012590;28;21707;-61
2021/09/29 05:27:05;;;;;;;26.92;23.02;;;17.80;99.90;;;;;;5011823;28;20172;-57
2021/09/29 05:29:32;;;;;;;27.67;22.92;;;18.00;99.90;;;;;;5013195;28;20037;-56
2021/09/29 05:31:58;;;;;;;28.27;22.65;;;18.20;99.90;;;;;;5012784;28;20026;-53
2021/09/29 05:34:24;;;;;;;24.83;22.10;;;18.30;99.90;;;;;;4993761;28;20405;-53
2021/09/29 05:36:53;;;;;;;30.15;22.73;;;18.50;99.90;;;;;;5011684;28;20045;-49
2021/09/29 05:39:19;;;;;;;29.52;23.02;;;18.60;99.90;;;;;;4989818;28;20026;-55
2021/09/29 05:41:45;;;;;;;27.42;22.85;;;18.60;99.90;;;;;;5011033;28;20036;-52
2021/09/29 05:44:11;;;;;;;25.80;21.85;;;18.70;99.90;;;;;;5010877;28;20044;-55
2021/09/29 05:46:37;;;;;;;31.50;24.73;;;18.80;99.90;;;;;;5008049;28;20026;-52
2021/09/29 05:49:03;;;;;;;30.42;24.00;;;18.70;99.90;;;;;;5007337;28;20513;-54
2021/09/29 05:51:29;;;;;;;28.15;21.92;;;18.70;99.90;;;;;;5007054;28;20124;-52
2021/09/29 05:53:54;;;;;;;31.67;24.00;;;18.70;99.90;;;;;;5005926;28;20216;-54
2021/09/29 05:56:21;;;;;;;33.40;24.70;;;18.80;99.90;;;;;;5009346;28;20034;-53
2021/09/29 05:58:47;;;;;;;36.75;27.05;;;18.70;99.90;;;;;;5010803;28;20022;-51
2021/09/29 06:01:13;;;;;;;29.65;23.50;;;18.80;99.90;;;;;;5008694;28;20034;-50
2021/09/29 06:03:39;;;;;;;26.50;20.98;;;18.90;99.90;;;;;;5012068;28;20466;-53
2021/09/29 06:06:05;;;;;;;27.67;20.77;;;18.70;99.90;;;;;;5009687;28;20497;-50
2021/09/29 06:08:31;;;;;;;27.67;22.38;;;18.80;99.90;;;;;;5012275;28;20474;-54
2021/09/29 06:10:57;;;;;;;24.63;19.80;;;18.80;99.90;;;;;;5009860;28;20129;-51
2021/09/29 06:13:24;;;;;;;24.73;20.73;;;18.80;99.90;;;;;;5007119;28;20049;-51
2021/09/29 06:15:50;;;;;;;26.10;21.73;;;18.80;99.90;;;;;;5011749;28;20030;-52
2021/09/29 06:18:17;;;;;;;26.50;21.65;;;18.90;99.90;;;;;;4991179;28;20088;-51
2021/09/29 06:20:47;;;;;;;24.13;21.38;;;18.90;99.90;;;;;;5011573;28;20022;-52
2021/09/29 06:23:14;;;;;;;26.70;22.08;;;19.00;99.90;;;;;;5006734;28;20026;-52
2021/09/29 06:25:40;;;;;;;28.75;23.52;;;19.10;99.90;;;;;;5009515;28;20378;-53
2021/09/29 06:28:06;;;;;;;27.10;22.17;;;19.10;99.90;;;;;;5005679;28;20038;-51
2021/09/29 06:30:33;;;;;;;32.60;23.00;;;19.30;99.90;;;;;;5004627;28;20046;-52
2021/09/29 06:32:59;;;;;;;30.83;22.85;;;19.30;99.90;;;;;;4985948;28;20034;-53
2021/09/29 06:38:47;;;;;;;31.73;22.75;;;19.40;99.90;;;;;;4998191;28;20077;-53
2021/09/29 06:41:14;;;;;;;27.75;23.55;;;;;;;;;;4970826;28;20046;-54
2021/09/29 06:43:40;;;;;;;29.05;23.55;;;19.40;99.90;;;;;;4995232;28;20068;-54
2021/09/29 06:46:06;;;;;;;28.17;22.40;;;19.60;99.90;;;;;;4969093;28;20069;-51
2021/09/29 06:48:32;;;;;;;27.75;22.85;;;19.50;99.90;;;;;;5009122;28;20044;-52
2021/09/29 06:50:57;;;;;;;27.00;22.77;;;19.50;99.90;;;;;;5013295;28;20034;-52
2021/09/29 06:53:23;;;;;;;31.75;23.65;;;19.40;99.90;;;;;;5008250;28;20022;-54
2021/09/29 06:55:50;;;;;;;32.75;24.92;;;19.50;99.90;;;;;;5008326;28;20033;-53
2021/09/29 06:58:17;;;;;;;28.48;23.23;;;19.60;99.90;;;;;;5011371;28;20038;-54
2021/09/29 07:00:43;;;;;;;24.98;21.33;;;19.60;99.90;;;;;;5011869;28;20038;-52
2021/09/29 07:03:09;;;;;;;26.73;20.95;;;19.50;99.90;;;;;;5009355;28;20488;-51
2021/09/29 07:05:35;;;;;;;25.63;21.05;;;19.50;99.90;;;;;;4986908;28;20038;-54
2021/09/29 07:08:01;;;;;;;24.05;20.38;;;19.60;99.90;;;;;;5006459;28;20026;-52
2021/09/29 07:10:28;;;;;;;25.33;21.23;;;19.70;99.90;;;;;;5012922;28;20053;-51
2021/09/29 07:12:57;;;;;;;22.88;19.88;;;19.80;99.90;;;;;;5011902;28;20030;-53
2021/09/29 07:15:24;;;;;;;26.60;20.33;;;20.00;99.90;;;;;;5014451;28;20038;-55
2021/09/29 07:17:55;;;;;;;25.63;21.30;;;20.30;99.90;;;;;;4996095;28;20033;-52
2021/09/29 07:23:47;;;;;;;32.53;24.63;;;;;;;;;;5009790;28;20112;-51
2021/09/29 07:36:01;;;;;;;30.48;24.48;;;20.70;99.90;;;;;;5006931;28;20061;-55
2021/09/29 07:38:28;;;;;;;32.17;24.85;;;20.80;99.90;;;;;;4960461;28;20069;-52
2021/09/29 07:40:54;;;;;;;32.08;25.00;;;21.10;99.90;;;;;;5010917;28;20063;-54
2021/09/29 07:43:20;;;;;;;31.35;26.67;;;;;;;;;;5010300;28;20033;-55
2021/09/29 07:45:47;;;;;;;29.17;26.08;;;;;;;;;;5009306;28;20041;-55
2021/09/29 07:48:15;;;;;;;34.95;25.40;;;;;;;;;;5008146;28;20516;-55
2021/09/29 07:50:41;;;;;;;29.90;24.90;;;21.30;99.90;;;;;;5009699;28;20034;-55
2021/09/29 07:53:14;;;;;;;29.88;24.70;;;;;;;;;;5009651;28;20034;-54
2021/09/29 07:55:40;;;;;;;25.70;22.35;;;;;;;;;;5010173;28;20048;-53
2021/09/29 07:58:07;;;;;;;24.23;21.08;;;;;;;;;;5009610;28;20087;-55
2021/09/29 08:00:33;;;;;;;22.60;20.08;;;;;;;;;;5014104;28;20037;-55
2021/09/29 08:02:59;;;;;;;23.65;21.15;;;;;;;;;;5026855;28;20037;-53
2021/09/29 08:05:25;;;;;;;22.20;19.60;;;;;;;;;;5013360;28;20034;-51
2021/09/29 08:07:52;;;;;;;26.90;21.02;;;;;;;;;;5013738;28;20077;-51
2021/09/29 08:10:20;;;;;;;22.63;17.92;;;;;;;;;;5015004;28;20026;-51
2021/09/29 08:12:49;;;;;;;23.02;20.48;;;;;;;;;;5006169;28;20046;-51
2021/09/29 08:15:17;;;;;;;25.90;21.38;;;;;;;;;;5010841;28;20474;-51
2021/09/29 08:17:45;;;;;;;25.05;22.33;;;;;;;;;;5011449;28;20034;-51
2021/09/29 08:20:12;;;;;;;28.30;25.00;;;;;;;;;;5013743;28;20033;-52
2021/09/29 08:22:40;;;;;;;30.83;26.95;;;;;;;;;;5011389;28;20058;-51
2021/09/29 08:25:19;;;;;;;28.20;25.17;;;;;;;;;;5009667;28;20116;-50
2021/09/29 08:27:52;;;;;;;29.10;25.35;;;;;;;;;;5013302;28;20038;-51
2021/09/29 08:38:33;;;;;;;25.85;23.17;;;;;;;;;;4970090;28;20109;-50
2021/09/29 08:43:54;;;;;;;25.75;23.10;;;24.70;99.90;;;;;;4973278;28;20126;-50
2021/09/29 08:49:02;;;;;;;26.35;22.40;;;24.40;99.90;;;;;;4971228;28;20062;-50
2021/09/29 08:51:48;;;;;;;24.20;20.83;;;24.20;99.90;;;;;;4971288;28;20490;-52
2021/09/29 08:54:22;;;;;;;28.40;23.52;;;24.30;99.90;;;;;;4934578;28;20130;-52
2021/09/29 08:57:08;;;;;;;24.80;22.08;;;;;;;;;;4968506;28;20197;-54
2021/09/29 09:16:18;;;;;;;21.92;18.58;;;;;;;;;;5001546;28;20045;-52
2021/09/29 09:18:50;;;;;;;20.77;18.58;;;;;;;;;;5012421;28;20038;-51
2021/09/29 09:21:19;;;;;;;21.00;18.80;;;;;;;;;;5012981;28;20037;-53
2021/09/29 09:23:46;;;;;;;24.92;19.48;;;;;;;;;;5009042;28;20117;-53
2021/09/29 09:26:13;;;;;;;23.25;19.45;;;;;;;;;;5006725;28;20033;-50
2021/09/29 09:28:40;;;;;;;22.95;19.58;;;;;;;;;;5010667;28;20060;-51
2021/09/29 09:31:13;;;;;;;23.13;20.63;;;;;;;;;;5012512;28;20040;-50
2021/09/29 09:34:06;;;;;;;24.00;21.48;;;;;;;;;;5009791;28;20038;-50
2021/09/29 09:36:32;;;;;;;22.65;20.17;;;;;;;;;;5001070;28;20405;-50
2021/09/29 09:38:59;;;;;;;24.58;21.65;;;;;;;;;;5011953;28;20056;-51
2021/09/29 09:41:25;;;;;;;25.08;21.83;;;;;;;;;;5009719;28;20032;-51
2021/09/29 09:43:53;;;;;;;24.98;21.90;;;;;;;;;;5012869;28;20063;-50
2021/09/29 09:46:22;;;;;;;23.45;20.60;;;;;;;;;;5009604;28;20034;-51
2021/09/29 09:48:58;;;;;;;23.50;20.80;;;;;;;;;;5008705;28;20052;-50
2021/09/29 09:51:23;;;;;;;22.42;20.13;;;24.80;99.90;;;;;;5006117;28;20109;-50
2021/09/29 09:53:54;;;;;;;22.10;19.83;;;24.90;99.90;;;;;;5009752;28;20129;-50
2021/09/29 09:56:25;;;;;;;23.70;19.77;;;24.70;99.90;;;;;;4970504;28;20046;-51
2021/09/29 09:58:54;;;;;;;22.35;20.08;;;24.80;99.90;;;;;;4991268;28;20097;-50
2021/09/29 10:01:22;;;;;;;21.08;18.88;;;25.00;99.90;;;;;;4991380;28;20073;-50
2021/09/29 10:03:49;;;;;;;20.70;18.50;;;25.00;99.90;;;;;;4938906;28;20061;-51
2021/09/29 10:06:15;;;;;;;20.58;17.10;;;25.40;99.90;;;;;;4957954;28;20049;-51
2021/09/29 10:08:46;;;;;;;20.73;18.55;;;25.60;99.90;;;;;;4988886;28;20038;-51
2021/09/29 10:11:20;;;;;;;21.20;18.95;;;;;;;;;;4990386;28;20042;-51
2021/09/29 10:23:11;;;;;;;16.65;13.32;;;;;;;;;;4913085;29;20095;-50
2021/09/29 10:28:23;;;;;;;20.30;16.10;;;24.90;99.90;;;;;;4950421;28;20503;-50
2021/09/29 10:31:15;;;;;;;17.00;15.23;;;;;;;;;;4959443;28;20135;-50
2021/09/29 10:33:45;;;;;;;17.40;14.13;;;;;;;;;;4953072;28;20032;-50
2021/09/29 10:42:03;;;;;;;15.73;13.68;;;;;;;;;;4953793;28;20046;-50
2021/09/29 11:06:56;;;;;;;15.15;10.82;;;;;;;;;;5010760;28;20073;-50
2021/09/29 11:09:51;;;;;;;17.42;11.90;;;;;;;;;;5009942;28;20409;-51
2021/09/29 11:34:50;;;;;;;10.52;9.27;;;26.20;99.90;;;;;;5009127;28;20061;-50
2021/09/29 12:08:02;;;;;;;11.70;9.67;;;26.80;99.60;;;;;;5013905;28;20037;-53
2021/09/29 12:10:29;;;;;;;14.73;8.77;;;27.00;99.90;;;;;;5013547;28;20478;-53
2021/09/29 12:12:56;;;;;;;10.95;8.45;;;27.20;99.50;;;;;;5015105;28;20026;-52
2021/09/29 12:15:23;;;;;;;9.55;6.18;;;27.50;99.90;;;;;;5013775;28;20075;-55
2021/09/29 12:17:52;;;;;;;11.88;9.88;;;27.30;99.90;;;;;;5014271;28;20374;-56
2021/09/29 12:20:22;;;;;;;11.30;10.15;;;27.20;99.90;;;;;;5013647;28;20036;-53
2021/09/29 12:22:55;;;;;;;11.57;9.98;;;27.50;99.90;;;;;;5028374;28;20068;-50
2021/09/29 12:25:39;;;;;;;10.55;9.45;;;;;;;;;;5012318;28;20117;-52
2021/09/29 12:36:29;;;;;;;11.57;9.77;;;;;;;;;;5003815;28;20089;-50
2021/09/29 12:38:55;;;;;;;13.23;10.65;;;;;;;;;;5006957;28;20041;-52
2021/09/29 12:41:23;;;;;;;11.70;10.20;;;;;;;;;;5004043;28;20057;-49
2021/09/29 12:43:59;;;;;;;12.45;9.13;;;;;;;;;;5001732;28;20037;-59
2021/09/29 12:46:25;;;;;;;15.38;10.05;;;27.10;99.90;;;;;;5007493;28;20029;-61
2021/09/29 12:48:51;;;;;;;13.77;10.10;;;26.70;99.90;;;;;;5003571;28;20367;-53
2021/09/29 12:51:20;;;;;;;16.77;11.77;;;;;;;;;;5002814;28;20038;-52
2021/09/29 12:53:59;;;;;;;10.02;8.18;;;;;;;;;;4973167;28;20038;-53
2021/09/29 12:56:25;;;;;;;11.95;10.68;;;;;;;;;;4973409;28;20065;-52
2021/09/29 12:58:51;;;;;;;11.38;10.20;;;25.50;99.90;;;;;;4995882;28;20528;-49
2021/09/29 13:01:17;;;;;;;12.60;11.30;;;;;;;;;;5003300;28;20113;-44
2021/09/29 13:03:44;;;;;;;13.00;10.85;;;;;;;;;;5004690;28;20471;-48
2021/09/29 13:06:11;;;;;;;12.68;10.57;;;;;;;;;;5001147;28;20082;-50
2021/09/29 13:08:38;;;;;;;13.18;10.95;;;;;;;;;;5004896;28;20060;-53
2021/09/29 13:11:04;;;;;;;13.57;10.13;;;;;;;;;;4996434;28;20667;-49
2021/09/29 13:13:31;;;;;;;12.10;10.38;;;;;;;;;;5010095;28;20124;-50
2021/09/29 13:16:00;;;;;;;13.23;11.23;;;;;;;;;;5010846;28;20026;-50
2021/09/29 13:20:59;;;;;;;13.95;9.52;;;24.80;99.90;;;;;;5010509;28;20022;-51
2021/09/29 13:36:57;;;;;;;11.40;10.30;;;;;;;;;;4970770;28;20105;-53
2021/09/29 13:39:23;;;;;;;10.57;9.48;;;;;;;;;;4939008;28;20114;-51
2021/09/29 13:41:52;;;;;;;13.48;10.13;;;;;;;;;;4970834;28;20467;-51
2021/09/29 13:44:18;;;;;;;11.07;9.32;;;;;;;;;;4969925;28;20067;-51
2021/09/29 13:46:46;;;;;;;10.38;9.38;;;;;;;;;;4970222;28;20039;-52
2021/09/29 13:49:12;;;;;;;12.65;8.40;;;;;;;;;;4971296;28;20042;-56
2021/09/29 13:51:39;;;;;;;10.57;9.48;;;;;;;;;;4938376;28;20514;-53
2021/09/29 13:54:09;;;;;;;9.55;8.18;;;;;;;;;;4971060;28;20029;-51
2021/09/29 13:59:36;;;;;;;11.50;7.95;;;;;;;;;;4970139;28;20638;-53
2021/09/29 14:31:39;;;;;;;11.32;6.65;;;23.90;99.90;;;;;;5006086;28;20034;-49
2021/09/29 14:34:05;;;;;;;8.63;6.15;;;23.90;99.90;;;;;;5006850;28;20952;-50
2021/09/29 14:36:31;;;;;;;10.40;6.10;;;23.60;99.90;;;;;;5008844;28;20642;-50
2021/09/29 14:38:57;;;;;;;9.38;5.60;;;23.70;99.90;;;;;;5009301;28;20045;-55
2021/09/29 14:41:22;;;;;;;8.68;5.72;;;23.70;99.90;;;;;;5009156;28;20057;-54
2021/09/29 14:43:48;;;;;;;10.00;7.40;;;;;;;;;;4977502;28;20532;-47
2021/09/29 14:46:14;;;;;;;9.55;6.30;;;;;;;;;;4974350;28;20042;-47
2021/09/29 14:48:41;;;;;;;8.68;5.45;;;;;;;;;;4975707;28;20474;-50
2021/09/29 14:51:08;;;;;;;8.68;5.70;;;;;;;;;;4977005;28;20037;-53
2021/09/29 14:53:39;;;;;;;8.25;5.30;;;23.10;99.90;;;;;;4977165;28;20074;-54
2021/09/29 14:56:06;;;;;;;9.95;6.13;;;23.00;99.90;;;;;;4981312;28;20116;-53
2021/09/29 14:58:33;;;;;;;8.98;6.50;;;;;;;;;;4953329;28;20126;-52
2021/09/29 15:00:59;;;;;;;11.10;6.55;;;22.80;98.90;;;;;;4978944;28;20479;-48
2021/09/29 15:03:25;;;;;;;11.20;5.78;;;22.70;99.40;;;;;;4978763;28;20035;-52
2021/09/29 15:05:53;;;;;;;7.30;5.50;;;22.80;99.90;;;;;;4986776;28;20382;-50
2021/09/29 15:08:18;;;;;;;6.88;5.05;;;22.80;99.90;;;;;;4985069;28;20471;-54
2021/09/29 15:10:45;;;;;;;5.13;4.10;;;22.70;99.90;;;;;;4985415;28;20120;-51
2021/09/29 15:13:14;;;;;;;4.38;3.85;;;;;;;;;;4982048;28;20114;-50
2021/09/29 15:16:05;;;;;;;7.07;3.70;;;22.50;99.90;;;;;;5003949;28;20046;-54
2021/09/29 15:18:33;;;;;;;5.88;4.65;;;22.30;99.90;;;;;;5008144;28;20500;-51
2021/09/29 15:31:30;;;;;;;5.60;3.58;;;22.00;99.90;;;;;;4976613;28;20033;-48
2021/09/29 15:55:30;;;;;;;5.03;3.13;;;21.10;99.90;;;;;;5010835;28;20450;-49
2021/09/29 16:13:45;;;;;;;;;;;;;;;;;;5008837;28;20041;-50
2021/09/29 16:32:09;;;;;;;4.75;2.40;;;;;;;;;;5004557;28;20093;-53
2021/09/29 16:34:45;;;;;;;2.88;2.50;;;19.80;99.90;;;;;;5008005;28;20038;-46
2021/09/29 16:37:11;;;;;;;7.03;2.85;;;19.80;99.90;;;;;;4980059;28;20536;-53
2021/09/29 16:39:37;;;;;;;3.40;2.63;;;19.70;99.90;;;;;;5008879;28;20074;-50
2021/09/29 16:42:03;;;;;;;5.60;2.72;;;19.60;99.90;;;;;;5010162;28;20676;-48
2021/09/29 16:44:29;;;;;;;8.52;4.55;;;19.50;99.90;;;;;;4943294;28;20037;-51
2021/09/29 16:46:57;;;;;;;4.25;3.08;;;19.30;99.90;;;;;;5008546;28;20049;-49
2021/09/29 16:49:25;;;;;;;8.02;3.70;;;;;;;;;;5009867;28;20046;-47
2021/09/29 16:52:07;;;;;;;3.60;2.95;;;19.10;99.90;;;;;;5007824;28;20077;-50
2021/09/29 16:54:33;;;;;;;5.70;2.88;;;;;;;;;;4960939;28;20389;-50
2021/09/29 16:56:59;;;;;;;6.13;2.90;;;19.20;99.90;;;;;;5009564;28;20038;-51
2021/09/29 17:02:17;;;;;;;3.30;2.60;;;19.10;99.90;;;;;;4978013;28;20056;-49
2021/09/29 17:04:45;;;;;;;3.35;2.35;;;19.00;99.90;;;;;;5009089;28;20045;-50
2021/09/29 17:07:12;;;;;;;4.90;2.90;;;18.90;99.90;;;;;;5008888;28;20040;-51
2021/09/29 17:09:38;;;;;;;4.53;3.58;;;18.90;99.90;;;;;;4941253;28;20482;-53
2021/09/29 17:12:05;;;;;;;4.80;3.05;;;18.80;99.90;;;;;;5011590;28;20088;-52
2021/09/29 17:14:30;;;;;;;4.47;3.00;;;18.70;99.90;;;;;;5007223;28;20037;-49
2021/09/29 17:16:56;;;;;;;4.97;2.75;;;18.70;99.90;;;;;;4958633;28;20130;-47
2021/09/29 17:19:22;;;;;;;7.13;2.97;;;18.70;99.90;;;;;;4993290;28;20033;-51
2021/09/29 17:21:48;;;;;;;4.32;2.80;;;18.70;99.90;;;;;;5009148;28;20030;-53